Flight NumberQSM341I Date23.01.2021
Departure AirportRJTT Arrival AirportUHPP
Departure Time23.57Arrival Time3.01
Pilot In CommandSaeed Yousefi Block Time3.10 Hours
Pilot Rating100 % AircraftEP-QIF [ A340-300 ]


Distance1,320.00 Nm. Passengers356
Fuel Used27,289 Kg. Cargo166 Kg
Expense Details Income Details
Fuel Cost34,888 v$Ticket Sales106,800 v$
Pilot Salary38,241 v$ Cargo income404.00 v$
Crew Salary1,780 v$ Bonus45,526 v$
Gross Profit234,915 v$ ( 5,872,875 v$ )

Client Versionv2.4.0 Max Simrate1
Flight Critique Pilot CommentsUHPP 232200Z 02006MPS 9999 NSC M19/M25 Q1007 R34L/CLRD70 NOSIG RMK QFE752/1002